Madison Heights, Michigan
Current Conditions -  °F | °C
As of 1:15 PM on Thursday 18 Dec 2014 (Local Time) from KVLL Reporting Station
Overcast Overcast  
Wind Chill: 27°   Ceiling: 1500
Heat Index: 34°   Visibility: 10mi
Dew Point: 29°   Wind: 8mph
Humidity: 82%   Direction: 280°W
Pressure: 30.16"   Gusts: NA
Location:  42.52°N, 83.11°W
Report Text: KVLL 181815Z AUTO 28007KT 10SM BKN015 OVC025 01/M02 A3016 RMK AO2 T00101017
Loading
Personal Weather Stations






























Interactive Weather Map New forecast layout! Learn more

10-Day Weather Forecast

Advertisements
Track Severe Weather on mobile